Terminal Aerodrome Forecast
Issued by NWS Twin Cities, MN

Home | Current Version | Previous Version | Graphics & Text | Print | Product List | Glossary On
Versions: 1 2 3 4 5 6 7 8 9 10 11 12 13 14 15
000
FTUS43 KMPX 200500
TAFSTC
TAF
KSTC 200520Z 2006/2106 14007KT 4SM BR OVC007
     FM200800 15005KT 2SM BR OVC003
     FM201600 17007KT 4SM BR OVC006
     FM202000 17007KT 6SM HZ OVC015=

USA.gov is the U.S. government's official web portal to all federal, state and local government web resources and services.